Latest Weather Observations for Narrandera Airport

IDN60801

Issued at 8:35 pm EST Monday 21 April 2014 (issued every 30 minutes, with the page automatically refreshed every 10 minutes)

About weather observations | Map of weather stations | Latest weather observations for NSW | Other Formats
Station Details ID: 074148 Name: NARRANDERA AIRPORT Lat: -34.70 Lon: 146.51 Height: 145.0 m
Data from the previous 72 hours. | See also: Recent months for locations in New South Wales
Date/Time
EST
Temp
°C
App
Temp
°C
Dew
Point
Rel
Hum
%
Delta-T
°C
Wind Press
QNH
hPa
Press
MSL
hPa
Rain
since 9 am
mm
Dir
 
Spd
km/h
Gust
km/h
Spd
kts
Gust
kts
21/08:30pm 10.9 10.3 7.2 78 1.8 ESE 0 0 0 0 1020.1 - 0.0
21/08:00pm 11.3 10.7 7.4 77 1.9 ESE 0 0 0 0 1020.1 1019.8 0.0
21/07:30pm 11.7 11.1 7.4 75 2.1 CALM 0 0 0 0 1020.2 - 0.0
21/07:00pm 11.8 11.2 7.5 75 2.1 CALM 0 0 0 0 1020.0 1019.7 0.0
21/06:30pm 13.0 12.4 7.5 69 2.7 CALM 0 0 0 0 1019.8 - 0.0
21/06:00pm 15.0 14.6 8.3 64 3.4 ESE 0 0 0 0 1019.4 1019.1 0.0
21/05:30pm 16.9 16.4 7.8 55 4.6 CALM 0 0 0 0 1019.3 - 0.0
21/05:00pm 18.8 17.4 5.3 41 6.6 W 2 7 1 4 1019.4 1019.1 0.0
21/04:30pm 19.9 18.6 5.9 40 7.0 NW 2 9 1 5 1019.4 - 0.0
21/04:00pm 19.8 17.2 4.3 36 7.5 N 7 11 4 6 1019.4 1019.1 0.0
21/03:30pm 19.5 17.4 4.0 36 7.4 ESE 4 9 2 5 1019.4 - 0.0
21/03:00pm 19.1 16.1 4.1 37 7.2 E 9 15 5 8 1019.6 1019.3 0.0
21/02:30pm 19.9 17.0 4.4 36 7.5 E 9 11 5 6 1019.7 - 0.0
21/02:00pm 19.8 18.2 4.7 37 7.3 E 2 9 1 5 1020.0 1019.7 0.0
21/01:30pm 19.5 17.2 5.6 40 6.9 NW 7 15 4 8 1020.2 - 0.0
21/01:00pm 18.7 15.8 4.8 40 6.7 NE 9 15 5 8 1020.4 1020.1 0.0
21/12:30pm 18.1 15.6 5.0 42 6.3 ENE 7 17 4 9 1020.6 - 0.0
21/12:00pm 17.4 14.1 4.4 42 6.2 E 11 17 6 9 1021.3 1021.0 0.0
21/11:30am 17.4 14.9 4.7 43 6.1 NNE 7 17 4 9 1021.8 - 0.0
21/11:00am 16.8 12.7 4.2 43 5.9 ENE 15 20 8 11 1022.0 1021.7 0.0
21/10:30am 16.2 12.7 3.6 43 5.8 ENE 11 17 6 9 1022.2 - 0.0
21/10:00am 15.8 12.3 5.4 50 5.0 ENE 13 17 7 9 1022.3 1022.0 0.0
21/09:30am 15.0 12.2 5.2 52 4.6 NE 9 13 5 7 1022.6 - 0.0
21/09:00am 13.4 11.4 6.3 62 3.4 E 6 7 3 4 1022.8 1022.5 0.0
21/08:30am 10.3 9.4 5.9 74 2.0 CALM 0 6 0 3 1023.0 - 0.0
21/08:00am 7.8 6.7 5.3 84 1.1 CALM 0 0 0 0 1022.8 1022.5 0.0
21/07:30am 4.6 3.3 3.9 95 0.3 CALM 0 0 0 0 1022.3 - 0.0
21/07:00am 3.1 1.5 2.4 95 0.3 CALM 0 0 0 0 1021.8 1021.5 0.0
21/06:30am 2.9 1.2 1.9 93 0.4 CALM 0 0 0 0 1021.7 - 0.0
21/06:00am 2.7 0.9 1.5 92 0.5 S 0 0 0 0 1021.5 1021.2 0.0
21/05:30am 3.2 1.6 2.2 93 0.4 CALM 0 0 0 0 1021.2 - 0.0
21/05:00am 3.4 1.7 2.1 91 0.5 CALM 0 0 0 0 1021.0 1020.7 0.0
21/04:30am 3.6 2.0 2.3 91 0.5 CALM 0 0 0 0 1020.8 - 0.0
21/04:00am 3.8 2.2 2.5 91 0.5 CALM 0 0 0 0 1020.6 1020.3 0.0
21/03:30am 3.9 2.3 2.3 89 0.6 CALM 0 0 0 0 1020.6 - 0.0
21/03:00am 4.5 3.0 2.8 89 0.7 CALM 0 0 0 0 1020.4 1020.1 0.0
21/02:30am 4.4 2.9 2.8 89 0.7 CALM 0 0 0 0 1020.5 - 0.0
21/02:00am 4.5 3.0 2.8 89 0.7 CALM 0 0 0 0 1020.7 1020.4 0.0
21/01:30am 4.9 3.4 3.2 89 0.7 CALM 0 0 0 0 1020.7 - 0.0
21/01:00am 4.8 3.3 3.1 89 0.7 CALM 0 0 0 0 1020.7 1020.4 0.0
21/12:30am 5.4 4.0 3.7 89 0.7 CALM 0 0 0 0 1020.8 - 0.0
21/12:00am 5.3 3.9 3.6 89 0.7 SSE 0 0 0 0 1020.8 1020.5 0.0
 
Date/Time
EST
Temp
°C
App
Temp
°C
Dew
Point
Rel
Hum
%
Delta-T
°C
Wind Press
QNH
hPa
Press
MSL
hPa
Rain
since 9 am
mm
Dir
 
Spd
km/h
Gust
km/h
Spd
kts
Gust
kts
20/11:30pm 5.3 3.9 3.5 88 0.8 CALM 0 0 0 0 1020.8 - 0.0
20/11:00pm 5.7 4.3 3.7 87 0.8 CALM 0 0 0 0 1021.0 1020.7 0.0
20/10:30pm 5.8 4.4 3.6 86 0.9 CALM 0 0 0 0 1021.1 - 0.0
20/10:00pm 6.1 4.7 3.8 85 1.0 CALM 0 0 0 0 1021.2 1020.9 0.0
20/09:30pm 6.6 5.4 4.4 86 1.0 CALM 0 0 0 0 1021.1 - 0.0
20/09:00pm 6.9 5.6 4.2 83 1.2 CALM 0 0 0 0 1020.9 1020.6 0.0
20/08:30pm 7.8 6.5 4.2 78 1.6 CALM 0 0 0 0 1020.8 - 0.0
20/08:00pm 8.7 7.6 5.1 78 1.6 CALM 0 0 0 0 1020.5 1020.2 0.0
20/07:30pm 9.1 7.9 4.7 74 2.0 CALM 0 0 0 0 1020.3 - 0.0
20/07:00pm 9.5 8.2 4.3 70 2.3 CALM 0 0 0 0 1020.1 1019.8 0.0
20/06:30pm 10.4 9.1 4.1 65 2.8 CALM 0 0 0 0 1019.9 - 0.0
20/06:00pm 12.5 10.8 4.2 57 3.8 S 2 7 1 4 1019.4 1019.1 0.0
20/05:30pm 14.7 12.8 4.7 51 4.7 S 4 9 2 5 1019.2 - 0.0
20/05:00pm 15.3 13.0 5.5 52 4.7 SSW 7 9 4 5 1019.0 1018.7 0.0
20/04:30pm 15.9 12.7 4.9 48 5.2 SSW 11 15 6 8 1018.9 - 0.0
20/04:00pm 16.2 12.2 4.9 47 5.4 SSW 15 20 8 11 1018.7 1018.4 0.0
20/03:30pm 16.4 12.6 4.1 44 5.8 SW 13 19 7 10 1018.7 - 0.0
20/03:00pm 16.6 12.2 4.9 46 5.6 SW 17 22 9 12 1018.6 1018.3 0.0
20/02:30pm 16.9 13.4 5.5 47 5.5 SW 13 22 7 12 1018.5 - 0.0
20/02:00pm 16.6 13.1 5.3 47 5.4 SW 13 20 7 11 1018.6 1018.3 0.0
20/01:30pm 16.3 11.8 4.4 45 5.6 SW 17 24 9 13 1018.8 - 0.0
20/01:00pm 16.2 12.6 4.9 47 5.4 WSW 13 17 7 9 1018.8 1018.5 0.0
20/12:30pm 16.2 13.0 4.9 47 5.4 SW 11 15 6 8 1019.2 - 0.0
20/12:00pm 15.9 12.2 4.6 47 5.3 W 13 17 7 9 1019.6 1019.3 0.0
20/11:30am 15.9 12.4 5.5 50 5.0 SW 13 20 7 11 1020.0 - 0.0
20/11:00am 16.0 13.0 5.9 51 4.9 W 11 17 6 9 1020.4 1020.1 0.0
20/10:30am 15.5 12.9 6.0 53 4.6 WNW 9 17 5 9 1020.5 - 0.0
20/10:00am 14.8 12.7 5.9 55 4.3 NW 6 13 3 7 1020.6 1020.3 0.0
20/09:30am 13.7 12.6 7.0 64 3.3 NNW 2 7 1 4 1020.6 - 0.0
20/09:00am 11.8 10.9 7.7 76 2.0 NW 2 7 1 4 1020.7 1020.4 0.0
20/08:30am 9.9 9.1 6.6 80 1.6 CALM 0 0 0 0 1020.4 - 0.0
20/08:00am 7.5 6.6 6.0 90 0.7 CALM 0 4 0 2 1020.1 1019.8 0.0
20/07:30am 4.5 3.2 3.9 96 0.3 CALM 0 0 0 0 1019.9 - 0.0
20/07:00am 3.1 1.5 2.4 95 0.3 CALM 0 0 0 0 1019.7 1019.4 0.0
20/06:30am 3.0 1.3 2.1 94 0.4 CALM 0 0 0 0 1019.4 - 0.0
20/06:00am 3.0 1.3 2.1 94 0.4 CALM 0 0 0 0 1019.1 1018.8 0.0
20/05:30am 3.3 1.7 2.4 94 0.4 CALM 0 0 0 0 1018.7 - 0.0
20/05:00am 3.5 1.9 2.6 94 0.4 CALM 0 0 0 0 1018.5 1018.2 0.0
20/04:30am 3.6 2.0 2.6 93 0.4 CALM 0 0 0 0 1018.3 - 0.0
20/04:00am 3.8 2.3 2.8 93 0.4 CALM 0 0 0 0 1018.3 1018.0 0.0
20/03:30am 4.0 2.5 3.0 93 0.4 CALM 0 0 0 0 1018.1 - 0.0
20/03:00am 3.9 2.3 2.7 92 0.5 CALM 0 0 0 0 1018.1 1017.8 0.0
20/02:30am 4.1 2.6 2.9 92 0.5 CALM 0 0 0 0 1018.2 - 0.0
20/02:00am 4.7 3.3 3.7 93 0.4 CALM 0 0 0 0 1018.4 1018.1 0.0
20/01:30am 4.8 3.4 3.6 92 0.5 CALM 0 0 0 0 1018.4 - 0.0
20/01:00am 5.2 3.9 4.0 92 0.5 CALM 0 0 0 0 1018.6 1018.3 0.0
20/12:30am 5.3 3.9 3.8 90 0.6 CALM 0 0 0 0 1018.6 - 0.0
20/12:00am 6.0 4.8 4.5 90 0.6 CALM 0 0 0 0 1018.6 1018.3 0.0
 
Date/Time
EST
Temp
°C
App
Temp
°C
Dew
Point
Rel
Hum
%
Delta-T
°C
Wind Press
QNH
hPa
Press
MSL
hPa
Rain
since 9 am
mm
Dir
 
Spd
km/h
Gust
km/h
Spd
kts
Gust
kts
19/11:30pm 6.1 4.8 4.3 88 0.8 CALM 0 0 0 0 1018.5 - 0.0
19/11:00pm 6.3 5.0 4.1 86 0.9 CALM 0 0 0 0 1018.6 1018.3 0.0
19/10:30pm 7.0 5.8 4.8 86 1.0 CALM 0 0 0 0 1018.9 - 0.0
19/10:00pm 7.3 6.1 4.6 83 1.2 CALM 0 0 0 0 1018.9 1018.6 0.0
19/09:30pm 7.7 6.5 4.8 82 1.3 CALM 0 0 0 0 1019.1 - 0.0
19/09:00pm 8.8 7.8 5.5 80 1.5 CALM 0 0 0 0 1019.0 1018.7 0.0
19/08:30pm 9.5 8.5 5.5 76 1.8 CALM 0 0 0 0 1019.1 - 0.0
19/08:00pm 10.0 8.9 5.0 71 2.3 CALM 0 0 0 0 1018.9 1018.6 0.0
19/07:30pm 10.8 8.5 4.9 67 2.7 WSW 6 9 3 5 1018.7 - 0.0
19/07:00pm 12.3 9.9 5.2 62 3.3 SW 7 11 4 6 1018.4 1018.1 0.0
19/06:30pm 13.3 10.6 5.5 59 3.7 SW 9 15 5 8 1018.3 - 0.0
19/06:00pm 13.3 10.1 5.0 57 3.9 SW 11 15 6 8 1018.1 1017.8 0.0
19/05:30pm 15.2 10.9 5.1 51 4.8 SW 17 20 9 11 1017.9 - 0.0
19/05:00pm 16.4 12.1 5.1 47 5.4 SW 17 22 9 12 1017.8 1017.5 0.0
19/04:30pm 17.0 12.7 5.3 46 5.7 SW 17 24 9 13 1017.6 - 0.0
19/04:00pm 17.7 14.5 5.3 44 6.0 WSW 11 19 6 10 1017.7 1017.4 0.0
19/03:30pm 17.4 12.7 5.0 44 6.0 SW 19 24 10 13 1017.8 - 0.0
19/03:00pm 17.3 12.9 4.6 43 6.1 SW 17 22 9 12 1017.7 1017.4 0.0
19/02:30pm 17.4 13.0 4.7 43 6.1 SW 17 28 9 15 1017.9 - 0.0
19/02:00pm 17.6 13.5 6.2 47 5.6 W 17 24 9 13 1018.2 1017.9 0.0
19/01:30pm 16.8 12.2 5.4 47 5.5 SW 19 30 10 16 1018.3 - 0.0
19/01:00pm 16.1 11.8 5.1 48 5.2 SW 17 24 9 13 1018.7 1018.4 0.0
19/12:30pm 16.2 12.6 6.9 54 4.6 SW 15 24 8 13 1019.2 - 0.0
19/12:00pm 15.5 11.1 6.5 55 4.4 WSW 19 26 10 14 1019.7 1019.4 0.0
19/11:30am 15.3 11.4 7.1 58 4.1 WSW 17 26 9 14 1020.0 - 0.0
19/11:00am 14.7 11.7 7.5 62 3.6 WSW 13 20 7 11 1020.4 1020.1 0.0
19/10:30am 14.0 11.1 8.0 67 3.0 SW 13 17 7 9 1020.7 - 0.0
19/10:00am 12.9 9.9 7.8 71 2.5 SW 13 20 7 11 1020.8 1020.5 0.0
19/09:30am 11.6 7.7 7.1 74 2.2 SW 17 22 9 12 1020.8 - 0.0
19/09:00am 10.8 7.7 7.3 79 1.7 SW 13 19 7 10 1020.5 1020.2 0.0
19/08:30am 9.6 6.7 6.3 80 1.5 SW 11 17 6 9 1020.4 - 0.0
19/08:00am 8.7 6.1 6.0 83 1.2 SW 9 13 5 7 1020.1 1019.8 0.0
19/07:30am 7.5 5.8 5.8 89 0.8 WNW 4 9 2 5 1019.8 - 0.0
19/07:00am 5.9 3.5 4.4 90 0.6 W 6 7 3 4 1019.3 1019.0 0.0
19/06:30am 6.1 4.8 4.3 88 0.8 CALM 0 0 0 0 1019.1 - 0.0
19/06:00am 6.6 5.4 4.6 87 0.9 CALM 0 6 0 3 1019.0 1018.7 0.0
19/05:30am 6.7 5.1 4.5 86 1.0 SSW 2 9 1 5 1018.8 - 0.0
19/05:00am 7.0 5.0 4.3 83 1.2 SSW 4 9 2 5 1018.6 1018.3 0.0
19/04:30am 8.3 5.2 5.4 82 1.3 WSW 11 15 6 8 1018.9 - 0.0
19/04:00am 8.6 6.3 5.9 83 1.2 WSW 7 13 4 7 1018.7 1018.4 0.0
19/03:30am 9.0 6.3 5.7 80 1.5 WSW 9 17 5 9 1018.6 - 0.0
19/03:00am 9.4 6.4 5.8 78 1.7 WSW 11 19 6 10 1018.5 1018.2 0.0
19/02:30am 9.6 6.2 5.8 77 1.8 SW 13 17 7 9 1018.5 - 0.0
19/02:00am 10.1 7.1 5.9 75 1.9 WSW 11 15 6 8 1018.7 1018.4 0.0
19/01:30am 10.4 7.4 6.2 75 2.0 WSW 11 17 6 9 1018.6 - 0.0
19/01:00am 10.6 7.3 6.2 74 2.1 SW 13 20 7 11 1018.8 1018.5 0.0
19/12:30am 10.8 7.1 6.2 73 2.2 SSW 15 20 8 11 1018.7 - 0.0
19/12:00am 11.4 7.4 6.5 72 2.3 SSW 17 20 9 11 1018.7 1018.4 0.0
 
Date/Time
EST
Temp
°C
App
Temp
°C
Dew
Point
Rel
Hum
%
Delta-T
°C
Wind Press
QNH
hPa
Press
MSL
hPa
Rain
since 9 am
mm
Dir
 
Spd
km/h
Gust
km/h
Spd
kts
Gust
kts
18/11:30pm 12.1 8.2 7.0 71 2.5 SSW 17 20 9 11 1018.7 - 0.0
18/11:00pm 12.5 8.2 7.0 69 2.7 SSW 19 24 10 13 1018.7 1018.4 0.0
18/10:30pm 13.0 9.2 7.5 69 2.7 SSW 17 24 9 13 1018.9 - 0.0
18/10:00pm 14.2 9.5 7.9 66 3.1 SSW 22 32 12 17 1018.8 1018.5 0.0
18/09:30pm 14.9 11.0 9.3 69 2.9 SSW 20 30 11 16 1018.8 - 0.0
18/09:00pm 15.7 11.8 9.4 66 3.3 SSW 20 32 11 17 1018.3 1018.0 0.0

Other Formats:

Comma delimited format used in spreadsheet applications
http://www.bom.gov.au/fwo/IDN60801/IDN60801.95706.axf

JavaScript Object Notation format (JSON) in row-major order
http://www.bom.gov.au/fwo/IDN60801/IDN60801.95706.json